createdAt,value
2022-12-01T00:02:08.755Z,4.50
2022-12-01T00:04:35.628Z,4.50
2022-12-01T00:07:03.831Z,4.50
2022-12-01T00:09:49.679Z,4.40
2022-12-01T00:12:16.672Z,4.40
2022-12-01T00:14:43.504Z,4.40
2022-12-01T00:17:10.339Z,4.30
2022-12-01T00:19:37.613Z,4.30
2022-12-01T00:22:04.414Z,4.30
2022-12-01T00:24:31.209Z,4.30
2022-12-01T00:26:58.023Z,4.30
2022-12-01T00:29:24.791Z,4.30
2022-12-01T00:31:51.646Z,4.30
2022-12-01T00:34:23.320Z,4.30
2022-12-01T00:36:50.897Z,4.30
2022-12-01T00:39:17.719Z,4.30
2022-12-01T00:41:44.474Z,4.30
2022-12-01T00:44:11.332Z,4.30
2022-12-01T00:46:38.238Z,4.30
2022-12-01T00:49:06.102Z,4.30
2022-12-01T00:51:32.971Z,4.30
2022-12-01T00:53:59.911Z,4.20
2022-12-01T00:56:27.053Z,4.20
2022-12-01T00:58:53.813Z,4.20
2022-12-01T01:01:20.866Z,4.20
2022-12-01T01:03:47.954Z,4.20
2022-12-01T01:06:15.019Z,4.20
2022-12-01T01:08:41.897Z,4.20
2022-12-01T01:11:09.428Z,4.20
2022-12-01T01:13:36.782Z,4.30
2022-12-01T01:16:13.581Z,4.30
2022-12-01T01:18:40.451Z,4.30
2022-12-01T01:21:10.971Z,4.30
2022-12-01T01:23:38.204Z,4.40
2022-12-01T01:26:07.842Z,4.40
2022-12-01T01:28:34.938Z,4.40
2022-12-01T01:31:06.503Z,4.30
2022-12-01T01:33:33.383Z,4.30
2022-12-01T01:36:00.682Z,4.30
2022-12-01T01:38:28.156Z,4.30
2022-12-01T01:40:55.089Z,4.30
2022-12-01T01:43:42.226Z,4.30
2022-12-01T01:46:12.644Z,4.20
2022-12-01T01:48:41.968Z,4.20
2022-12-01T01:51:09.903Z,4.20
2022-12-01T01:53:37.182Z,4.10
2022-12-01T01:56:05.620Z,4.20
2022-12-01T01:58:33.641Z,4.20
2022-12-01T02:01:00.504Z,4.10
2022-12-01T02:03:29.276Z,4.10
2022-12-01T02:06:01.785Z,4.10
2022-12-01T02:08:34.355Z,4.20
2022-12-01T02:11:07.461Z,4.20
2022-12-01T02:13:55.109Z,4.10
2022-12-01T02:16:27.806Z,4.10
2022-12-01T02:19:32.475Z,4.10
2022-12-01T02:22:17.775Z,4.10
2022-12-01T02:24:55.708Z,4.00
2022-12-01T02:27:47.854Z,4.10
2022-12-01T02:30:18.187Z,4.10
2022-12-01T02:33:25.441Z,4.00
2022-12-01T02:36:10.020Z,4.10
2022-12-01T02:38:53.090Z,4.10
2022-12-01T02:41:47.373Z,4.10
2022-12-01T02:44:27.541Z,4.10
2022-12-01T02:47:05.273Z,4.10
2022-12-01T02:49:40.282Z,4.00
2022-12-01T02:52:07.815Z,4.00
2022-12-01T02:54:35.891Z,4.00
2022-12-01T02:57:02.711Z,4.00
2022-12-01T02:59:29.500Z,4.00
2022-12-01T03:02:02.786Z,4.00
2022-12-01T03:04:48.077Z,4.00
2022-12-01T03:07:48.028Z,4.00
2022-12-01T03:10:29.889Z,4.00
2022-12-01T03:13:12.874Z,4.00
2022-12-01T03:16:08.363Z,4.00
2022-12-01T03:18:46.182Z,4.00
2022-12-01T03:21:31.351Z,4.00
2022-12-01T03:24:29.430Z,4.00
2022-12-01T03:26:58.789Z,4.00
2022-12-01T03:29:38.609Z,4.00
2022-12-01T03:32:25.698Z,4.00
2022-12-01T03:34:52.725Z,4.00
2022-12-01T03:37:25.361Z,4.00
2022-12-01T03:40:00.341Z,4.00
2022-12-01T03:42:37.334Z,4.00
2022-12-01T03:45:14.523Z,4.10
2022-12-01T03:47:41.377Z,4.00
2022-12-01T03:50:13.279Z,4.00
2022-12-01T03:53:08.617Z,4.00
2022-12-01T03:55:41.853Z,4.00
2022-12-01T03:58:13.148Z,4.00
2022-12-01T04:00:41.029Z,4.00
2022-12-01T04:03:07.945Z,4.00
2022-12-01T04:05:35.475Z,3.90
2022-12-01T04:08:02.553Z,3.90
2022-12-01T04:10:29.416Z,3.90
2022-12-01T04:12:59.558Z,3.90
2022-12-01T04:15:27.571Z,3.90
2022-12-01T04:17:54.711Z,3.90
2022-12-01T04:20:21.738Z,3.90
2022-12-01T04:22:48.915Z,3.80
2022-12-01T04:25:15.686Z,3.80
2022-12-01T04:27:42.550Z,3.80
2022-12-01T04:30:09.734Z,3.80
2022-12-01T04:32:41.273Z,3.80
2022-12-01T04:35:10.443Z,3.90
2022-12-01T04:37:37.523Z,3.80
2022-12-01T04:40:05.731Z,3.80
2022-12-01T04:42:32.562Z,3.80
2022-12-01T04:44:59.538Z,3.70
2022-12-01T04:47:26.482Z,3.70
2022-12-01T04:49:53.257Z,3.70
2022-12-01T04:52:20.057Z,3.70
2022-12-01T04:54:46.968Z,3.70
2022-12-01T04:57:13.861Z,3.70
2022-12-01T04:59:40.666Z,3.70
2022-12-01T05:02:07.728Z,3.70
2022-12-01T05:04:38.508Z,3.70
2022-12-01T05:07:05.433Z,3.70
2022-12-01T05:09:32.266Z,3.70
2022-12-01T05:11:59.115Z,3.60
2022-12-01T05:14:25.954Z,3.70
2022-12-01T05:16:54.329Z,3.70
2022-12-01T05:19:39.795Z,3.70
2022-12-01T05:22:06.588Z,3.60
2022-12-01T05:24:33.337Z,3.70
2022-12-01T05:27:00.103Z,3.60
2022-12-01T05:29:26.833Z,3.70
2022-12-01T05:31:53.770Z,3.70
2022-12-01T05:34:20.632Z,3.60
2022-12-01T05:36:47.379Z,3.60
2022-12-01T05:39:14.241Z,3.60
2022-12-01T05:41:41.009Z,3.60
2022-12-01T05:44:07.762Z,3.60
2022-12-01T05:46:34.472Z,3.60
2022-12-01T05:49:01.268Z,3.60
2022-12-01T05:51:28.062Z,3.60
2022-12-01T05:53:55.186Z,3.60
2022-12-01T05:56:21.984Z,3.50
2022-12-01T05:58:48.721Z,3.50
2022-12-01T06:01:15.862Z,3.50
2022-12-01T06:03:42.747Z,3.50
2022-12-01T06:06:09.718Z,3.40
2022-12-01T06:08:36.505Z,3.40
2022-12-01T06:11:03.324Z,3.50
2022-12-01T06:13:30.211Z,3.50
2022-12-01T06:16:02.968Z,3.50
2022-12-01T06:18:35.165Z,3.50
2022-12-01T06:21:02.267Z,3.50
2022-12-01T06:23:30.624Z,3.50
2022-12-01T06:25:58.315Z,3.50
2022-12-01T06:28:25.215Z,3.50
2022-12-01T06:30:51.982Z,3.50
2022-12-01T06:33:18.746Z,3.50
2022-12-01T06:35:45.492Z,3.50
2022-12-01T06:38:12.270Z,3.50
2022-12-01T06:40:38.996Z,3.40
2022-12-01T06:43:06.465Z,3.40
2022-12-01T06:45:33.308Z,3.40
2022-12-01T06:48:00.137Z,3.40
2022-12-01T06:50:26.904Z,3.40
2022-12-01T06:52:54.612Z,3.40
2022-12-01T06:55:21.444Z,3.40
2022-12-01T06:57:48.495Z,3.40
2022-12-01T07:00:16.413Z,3.30
2022-12-01T07:02:43.673Z,3.30
2022-12-01T07:05:10.522Z,3.30
2022-12-01T07:07:39.245Z,3.30
2022-12-01T07:10:07.352Z,3.30
2022-12-01T07:12:34.700Z,3.30
2022-12-01T07:15:01.917Z,3.30
2022-12-01T07:17:29.659Z,3.30
2022-12-01T07:19:56.862Z,3.30
2022-12-01T07:22:28.130Z,3.30
2022-12-01T07:24:57.840Z,3.30
2022-12-01T07:27:24.602Z,3.30
2022-12-01T07:29:51.499Z,3.40
2022-12-01T07:32:18.506Z,3.40
2022-12-01T07:34:45.230Z,3.40
2022-12-01T07:37:11.965Z,3.40
2022-12-01T07:39:38.676Z,3.40
2022-12-01T07:42:05.647Z,3.40
2022-12-01T07:44:32.473Z,3.40
2022-12-01T07:46:59.205Z,3.40
2022-12-01T07:49:25.961Z,3.40
2022-12-01T07:51:52.722Z,3.40
2022-12-01T07:54:21.212Z,3.40
2022-12-01T07:56:48.020Z,3.40
2022-12-01T07:59:14.753Z,3.40
2022-12-01T08:01:44.506Z,3.40
2022-12-01T08:04:12.069Z,3.40
2022-12-01T08:06:38.862Z,3.40
2022-12-01T08:09:06.026Z,3.40
2022-12-01T08:11:32.798Z,3.30
2022-12-01T08:13:59.598Z,3.30
2022-12-01T08:16:26.556Z,3.30
2022-12-01T08:18:53.912Z,3.30
2022-12-01T08:21:22.912Z,3.30
2022-12-01T08:23:53.395Z,3.30
2022-12-01T08:26:20.875Z,3.30
2022-12-01T08:28:48.151Z,3.30
2022-12-01T08:31:16.695Z,3.30
2022-12-01T08:33:43.501Z,3.40
2022-12-01T08:36:10.379Z,3.40
2022-12-01T08:38:37.208Z,3.40
2022-12-01T08:41:06.769Z,3.40
2022-12-01T08:43:56.513Z,3.50
2022-12-01T08:46:20.815Z,3.50
2022-12-01T08:48:47.752Z,3.50
2022-12-01T08:51:17.026Z,3.50
2022-12-01T08:53:47.773Z,3.50
2022-12-01T08:56:24.402Z,3.50
2022-12-01T08:58:51.757Z,3.40
2022-12-01T09:01:19.317Z,3.40
2022-12-01T09:03:46.564Z,3.40
2022-12-01T09:06:16.672Z,3.40
2022-12-01T09:08:44.272Z,3.40
2022-12-01T09:11:14.628Z,3.30
2022-12-01T09:13:42.449Z,3.40
2022-12-01T09:16:12.978Z,3.30
2022-12-01T09:18:40.446Z,3.40
2022-12-01T09:21:17.989Z,3.40
2022-12-01T09:23:44.898Z,3.40
2022-12-01T09:26:14.020Z,3.40
2022-12-01T09:28:41.113Z,3.30
2022-12-01T09:31:10.432Z,3.30
2022-12-01T09:33:37.847Z,3.30
2022-12-01T09:36:06.109Z,3.30
2022-12-01T09:38:34.486Z,3.30
2022-12-01T09:41:07.043Z,3.40
2022-12-01T09:43:45.831Z,3.40
2022-12-01T09:46:22.200Z,3.40
2022-12-01T09:48:51.306Z,3.40
2022-12-01T09:51:23.946Z,3.50
2022-12-01T09:53:54.383Z,3.40
2022-12-01T09:56:23.985Z,3.40
2022-12-01T09:58:56.215Z,3.40
2022-12-01T10:01:37.984Z,3.40
2022-12-01T10:04:26.655Z,3.40
2022-12-01T10:07:06.572Z,3.40
2022-12-01T10:10:06.533Z,3.40
2022-12-01T10:12:35.232Z,3.40
2022-12-01T10:15:15.839Z,3.40
2022-12-01T10:18:20.247Z,3.40
2022-12-01T10:20:55.377Z,3.40
2022-12-01T10:24:00.799Z,3.50
2022-12-01T10:26:41.153Z,3.40
2022-12-01T10:29:10.955Z,3.40
2022-12-01T10:31:54.401Z,3.40
2022-12-01T10:34:25.785Z,3.40
2022-12-01T10:36:52.756Z,3.40
2022-12-01T10:39:36.654Z,3.40
2022-12-01T10:42:35.487Z,3.40
2022-12-01T10:45:06.332Z,3.40
2022-12-01T10:47:33.177Z,3.50
2022-12-01T10:49:59.897Z,3.50
2022-12-01T10:52:41.819Z,3.50
2022-12-01T10:55:23.686Z,3.50
2022-12-01T10:57:52.284Z,3.50
2022-12-01T11:00:58.565Z,3.50
2022-12-01T11:03:27.715Z,3.50
2022-12-01T11:06:00.325Z,3.50
2022-12-01T11:08:40.715Z,3.50
2022-12-01T11:11:24.835Z,3.50
2022-12-01T11:13:52.091Z,3.50
2022-12-01T11:16:34.174Z,3.50
2022-12-01T11:19:26.901Z,3.50
2022-12-01T11:21:59.818Z,3.50
2022-12-01T11:24:40.339Z,3.60
2022-12-01T11:27:18.868Z,3.60
2022-12-01T11:29:51.770Z,3.60
2022-12-01T11:32:24.145Z,3.60
2022-12-01T11:34:59.684Z,3.60
2022-12-01T11:37:37.276Z,3.60
2022-12-01T11:40:24.533Z,3.60
2022-12-01T11:42:54.379Z,3.60
2022-12-01T11:45:21.133Z,3.60
2022-12-01T11:48:02.235Z,3.60
2022-12-01T11:50:32.270Z,3.60
2022-12-01T11:52:59.128Z,3.70
2022-12-01T11:55:28.813Z,3.70
2022-12-01T11:58:02.741Z,3.60
2022-12-01T12:00:43.796Z,3.60
2022-12-01T12:03:48.490Z,3.70
2022-12-01T12:09:53.307Z,3.60
2022-12-01T12:12:26.030Z,3.60
2022-12-01T12:15:18.125Z,3.60
2022-12-01T12:18:15.567Z,3.60
2022-12-01T12:21:06.114Z,3.60
2022-12-01T12:23:54.704Z,3.60
2022-12-01T12:26:55.146Z,3.70
2022-12-01T12:29:43.237Z,3.70
2022-12-01T12:32:27.848Z,3.70
2022-12-01T12:35:17.957Z,3.70
2022-12-01T12:38:08.644Z,3.70
2022-12-01T12:40:57.570Z,3.70
2022-12-01T12:43:49.073Z,3.70
2022-12-01T12:46:24.826Z,3.70
2022-12-01T12:49:19.275Z,3.70
2022-12-01T12:52:08.110Z,3.70
2022-12-01T12:54:59.454Z,3.80
2022-12-01T12:57:45.465Z,3.80
2022-12-01T13:00:16.996Z,3.80
2022-12-01T13:02:49.791Z,3.80
2022-12-01T13:05:16.514Z,3.90
2022-12-01T13:08:04.560Z,3.90
2022-12-01T13:10:46.394Z,3.90
2022-12-01T13:13:19.731Z,3.90
2022-12-01T13:15:49.160Z,3.90
2022-12-01T13:18:34.681Z,3.90
2022-12-01T13:21:03.702Z,3.90
2022-12-01T13:23:32.112Z,3.90
2022-12-01T13:26:03.937Z,3.90
2022-12-01T13:28:39.963Z,3.90
2022-12-01T13:31:09.768Z,3.90
2022-12-01T13:33:38.869Z,3.90
2022-12-01T13:36:45.073Z,3.90
2022-12-01T13:39:14.274Z,3.90
2022-12-01T13:41:44.272Z,3.90
2022-12-01T13:44:46.601Z,3.90
2022-12-01T13:47:13.295Z,3.90
2022-12-01T13:49:51.090Z,3.90
2022-12-01T13:52:21.053Z,3.90
2022-12-01T13:55:09.591Z,3.90
2022-12-01T13:57:45.237Z,3.90
2022-12-01T14:00:30.532Z,3.90
2022-12-01T14:03:12.854Z,3.90
2022-12-01T14:05:39.579Z,3.90
2022-12-01T14:08:23.435Z,3.90
2022-12-01T14:11:15.236Z,3.90
2022-12-01T14:13:55.199Z,3.90
2022-12-01T14:16:23.130Z,4.00
2022-12-01T14:18:58.730Z,4.00
2022-12-01T14:21:45.498Z,4.00
2022-12-01T14:24:30.397Z,4.00
2022-12-01T14:26:57.561Z,4.00
2022-12-01T14:29:32.817Z,4.00
2022-12-01T14:32:05.926Z,4.00
2022-12-01T14:34:34.742Z,4.00
2022-12-01T14:37:16.390Z,4.00
2022-12-01T14:39:47.623Z,3.90
2022-12-01T14:42:39.503Z,3.90
2022-12-01T14:45:10.729Z,3.90
2022-12-01T14:47:52.637Z,3.90
2022-12-01T14:50:53.171Z,3.90
2022-12-01T14:53:33.800Z,3.90
2022-12-01T14:56:09.528Z,3.90
2022-12-01T14:58:36.417Z,3.90
2022-12-01T15:01:11.813Z,3.90
2022-12-01T15:03:45.509Z,3.80
2022-12-01T15:06:21.493Z,3.80
2022-12-01T15:09:25.550Z,3.80
2022-12-01T15:11:57.445Z,3.80
2022-12-01T15:14:39.575Z,3.80
2022-12-01T15:17:09.005Z,3.80
2022-12-01T15:19:41.136Z,3.80
2022-12-01T15:22:15.985Z,3.80
2022-12-01T15:24:43.411Z,3.90
2022-12-01T15:27:25.625Z,3.90
2022-12-01T15:29:52.972Z,3.80
2022-12-01T15:32:22.073Z,3.80
2022-12-01T15:34:53.393Z,3.90
2022-12-01T15:37:23.381Z,3.80
2022-12-01T15:40:00.900Z,3.80
2022-12-01T15:42:39.493Z,3.90
2022-12-01T15:45:15.547Z,3.90
2022-12-01T15:47:45.305Z,3.90
2022-12-01T15:50:31.030Z,3.90
2022-12-01T15:52:59.217Z,3.90
2022-12-01T15:55:31.039Z,3.90
2022-12-01T15:57:59.613Z,3.90
2022-12-01T16:00:27.035Z,3.90
2022-12-01T16:02:56.787Z,3.90
2022-12-01T16:05:30.156Z,3.90
2022-12-01T16:08:13.861Z,3.90
2022-12-01T16:10:41.037Z,3.90
2022-12-01T16:13:36.203Z,3.90
2022-12-01T16:16:28.483Z,3.90
2022-12-01T16:19:02.103Z,3.90
2022-12-01T16:21:33.573Z,3.90
2022-12-01T16:24:07.035Z,3.90
2022-12-01T16:26:33.953Z,3.90
2022-12-01T16:29:00.835Z,3.90
2022-12-01T16:31:27.770Z,3.90
2022-12-01T16:34:48.620Z,3.90
2022-12-01T16:37:52.743Z,3.90
2022-12-01T16:40:19.812Z,3.90
2022-12-01T16:43:36.581Z,3.90
2022-12-01T16:46:20.340Z,3.90
2022-12-01T16:52:45.986Z,3.90
2022-12-01T16:55:42.391Z,3.90
2022-12-01T17:04:22.477Z,3.90
2022-12-01T17:08:07.370Z,3.90
2022-12-01T17:11:06.373Z,3.80
2022-12-01T17:13:48.426Z,3.80
2022-12-01T17:16:30.435Z,3.80
2022-12-01T17:19:51.196Z,3.80
2022-12-01T17:23:11.111Z,3.80
2022-12-01T17:25:52.892Z,3.80
2022-12-01T17:31:57.120Z,3.80
2022-12-01T17:34:56.448Z,3.80
2022-12-01T17:37:23.540Z,3.80
2022-12-01T17:40:16.810Z,3.80
2022-12-01T17:42:50.434Z,3.70
2022-12-01T17:46:20.030Z,3.80
2022-12-01T17:53:44.781Z,3.80
2022-12-01T17:59:03.270Z,3.80
2022-12-01T18:02:05.449Z,3.80
2022-12-01T18:12:14.006Z,3.80
2022-12-01T18:14:59.960Z,3.80
2022-12-01T18:18:37.635Z,3.80
2022-12-01T18:21:39.888Z,3.80
2022-12-01T18:24:58.766Z,3.80
2022-12-01T18:27:34.704Z,3.80
2022-12-01T18:30:02.200Z,3.80
2022-12-01T18:32:55.869Z,3.80
2022-12-01T18:35:25.280Z,3.80
2022-12-01T18:38:07.333Z,3.80
2022-12-01T18:40:43.516Z,3.80
2022-12-01T18:47:25.525Z,3.80
2022-12-01T18:49:52.561Z,3.80
2022-12-01T18:53:06.907Z,3.80
2022-12-01T18:55:36.745Z,3.80
2022-12-01T19:02:39.748Z,3.80
2022-12-01T19:05:31.800Z,3.80
2022-12-01T19:08:13.189Z,3.80
2022-12-01T19:11:19.117Z,3.80
2022-12-01T19:22:55.884Z,3.80
2022-12-01T19:25:41.856Z,3.80
2022-12-01T19:28:41.729Z,3.80
2022-12-01T19:31:38.067Z,3.80
2022-12-01T19:34:31.734Z,3.80
2022-12-01T19:37:29.964Z,3.80
2022-12-01T19:40:26.389Z,3.80
2022-12-01T19:46:34.603Z,3.80
2022-12-01T19:49:17.483Z,3.80
2022-12-01T19:52:36.826Z,3.90
2022-12-01T19:55:35.499Z,3.80
2022-12-01T19:58:41.598Z,3.90
2022-12-01T20:01:39.641Z,3.80
2022-12-01T20:05:01.331Z,3.90
2022-12-01T20:08:04.211Z,3.80
2022-12-01T20:11:00.181Z,3.90
2022-12-01T20:16:59.313Z,3.90
2022-12-01T20:22:21.914Z,3.90
2022-12-01T20:38:49.119Z,3.90
2022-12-01T20:41:30.309Z,3.90
2022-12-01T20:47:11.530Z,3.90
2022-12-01T20:49:58.152Z,3.90
2022-12-01T20:52:51.108Z,4.00
2022-12-01T20:56:00.493Z,4.00
2022-12-01T20:58:38.256Z,3.90
2022-12-01T21:01:54.981Z,4.00
2022-12-01T21:04:59.275Z,4.00
2022-12-01T21:07:43.705Z,4.00
2022-12-01T21:10:39.069Z,4.00
2022-12-01T21:13:50.645Z,4.00
2022-12-01T21:17:28.739Z,4.00
2022-12-01T21:20:25.262Z,3.90
2022-12-01T21:23:15.230Z,4.00
2022-12-01T21:26:09.730Z,4.00
2022-12-01T21:29:15.827Z,4.00
2022-12-01T21:31:58.807Z,4.00
2022-12-01T21:36:14.843Z,4.00
2022-12-01T21:38:34.700Z,4.00
2022-12-01T21:45:39.149Z,4.00
2022-12-01T21:48:23.168Z,4.00
2022-12-01T21:51:59.605Z,4.00
2022-12-01T22:04:03.911Z,4.00
2022-12-01T22:07:28.783Z,3.90
2022-12-01T22:18:51.814Z,4.00
2022-12-01T22:21:44.240Z,3.90
2022-12-01T22:31:19.426Z,3.90
2022-12-01T22:34:01.480Z,3.90
2022-12-01T22:36:31.702Z,3.90
2022-12-01T22:39:19.689Z,3.90
2022-12-01T22:41:46.536Z,3.90
2022-12-01T22:44:34.243Z,3.90
2022-12-01T22:47:18.632Z,3.90
2022-12-01T22:49:48.734Z,3.90
2022-12-01T22:52:37.676Z,3.90
2022-12-01T22:55:17.562Z,3.90
2022-12-01T22:58:20.077Z,3.90
2022-12-01T23:01:03.559Z,3.90
2022-12-01T23:04:31.287Z,4.00
2022-12-01T23:07:30.564Z,3.90
2022-12-01T23:10:02.723Z,3.90
2022-12-01T23:12:36.167Z,4.00
2022-12-01T23:15:41.547Z,4.00
2022-12-01T23:18:40.661Z,4.00
2022-12-01T23:21:18.274Z,4.00
2022-12-01T23:23:54.449Z,4.00
2022-12-01T23:26:27.488Z,4.00
2022-12-01T23:29:04.838Z,4.00
2022-12-01T23:31:36.829Z,4.00
2022-12-01T23:34:18.923Z,4.00
2022-12-01T23:36:50.705Z,4.00
2022-12-01T23:39:55.171Z,4.00
2022-12-01T23:42:22.124Z,4.00
2022-12-01T23:44:53.459Z,4.00
2022-12-01T23:47:54.297Z,4.00
2022-12-01T23:50:29.629Z,4.00
2022-12-01T23:53:05.667Z,4.00
2022-12-01T23:55:32.631Z,4.00
2022-12-01T23:57:59.543Z,4.00
